sensor_id;sensor_type;location;lat;lon;timestamp;temperature;humidity
3069;DHT22;1545;51.728;8.796;2023-02-10T00:01:59;2.70;94.50
3069;DHT22;1545;51.728;8.796;2023-02-10T00:04:25;2.80;94.50
3069;DHT22;1545;51.728;8.796;2023-02-10T00:06:50;2.80;94.40
3069;DHT22;1545;51.728;8.796;2023-02-10T00:09:16;2.80;94.40
3069;DHT22;1545;51.728;8.796;2023-02-10T00:11:41;2.80;94.40
3069;DHT22;1545;51.728;8.796;2023-02-10T00:14:22;2.90;94.50
3069;DHT22;1545;51.728;8.796;2023-02-10T00:16:52;2.90;94.50
3069;DHT22;1545;51.728;8.796;2023-02-10T00:19:22;2.90;94.50
3069;DHT22;1545;51.728;8.796;2023-02-10T00:21:49;2.90;94.20
3069;DHT22;1545;51.728;8.796;2023-02-10T00:24:15;2.90;94.30
3069;DHT22;1545;51.728;8.796;2023-02-10T00:26:40;2.90;94.50
3069;DHT22;1545;51.728;8.796;2023-02-10T00:29:06;3.00;94.40
3069;DHT22;1545;51.728;8.796;2023-02-10T00:31:31;3.00;94.30
3069;DHT22;1545;51.728;8.796;2023-02-10T00:33:57;3.00;94.40
3069;DHT22;1545;51.728;8.796;2023-02-10T00:36:23;3.00;94.60
3069;DHT22;1545;51.728;8.796;2023-02-10T00:38:51;3.00;94.50
3069;DHT22;1545;51.728;8.796;2023-02-10T00:41:18;3.00;94.50
3069;DHT22;1545;51.728;8.796;2023-02-10T00:43:44;3.00;94.70
3069;DHT22;1545;51.728;8.796;2023-02-10T00:46:16;3.10;94.70
3069;DHT22;1545;51.728;8.796;2023-02-10T00:48:42;3.10;94.70
3069;DHT22;1545;51.728;8.796;2023-02-10T00:51:08;3.00;94.60
3069;DHT22;1545;51.728;8.796;2023-02-10T00:53:34;3.10;94.90
3069;DHT22;1545;51.728;8.796;2023-02-10T00:55:59;3.10;94.80
3069;DHT22;1545;51.728;8.796;2023-02-10T00:58:25;3.10;94.80
3069;DHT22;1545;51.728;8.796;2023-02-10T01:00:52;3.10;95.00
3069;DHT22;1545;51.728;8.796;2023-02-10T01:03:18;3.10;95.00
3069;DHT22;1545;51.728;8.796;2023-02-10T01:05:43;3.10;95.00
3069;DHT22;1545;51.728;8.796;2023-02-10T01:08:10;3.10;95.20
3069;DHT22;1545;51.728;8.796;2023-02-10T01:10:36;3.10;95.10
3069;DHT22;1545;51.728;8.796;2023-02-10T01:13:03;3.20;95.20
3069;DHT22;1545;51.728;8.796;2023-02-10T01:15:29;3.20;95.10
3069;DHT22;1545;51.728;8.796;2023-02-10T01:17:54;3.20;95.20
3069;DHT22;1545;51.728;8.796;2023-02-10T01:20:20;3.20;95.20
3069;DHT22;1545;51.728;8.796;2023-02-10T01:22:45;3.20;95.40
3069;DHT22;1545;51.728;8.796;2023-02-10T01:25:11;3.20;95.50
3069;DHT22;1545;51.728;8.796;2023-02-10T01:27:36;3.20;95.50
3069;DHT22;1545;51.728;8.796;2023-02-10T01:30:03;3.20;95.40
3069;DHT22;1545;51.728;8.796;2023-02-10T01:32:28;3.20;95.60
3069;DHT22;1545;51.728;8.796;2023-02-10T01:34:54;3.20;95.70
3069;DHT22;1545;51.728;8.796;2023-02-10T01:37:19;3.20;95.80
3069;DHT22;1545;51.728;8.796;2023-02-10T01:39:45;3.20;95.60
3069;DHT22;1545;51.728;8.796;2023-02-10T01:42:13;3.20;95.60
3069;DHT22;1545;51.728;8.796;2023-02-10T01:47:05;3.20;96.00
3069;DHT22;1545;51.728;8.796;2023-02-10T01:49:34;3.20;96.00
3069;DHT22;1545;51.728;8.796;2023-02-10T01:52:12;3.30;96.20
3069;DHT22;1545;51.728;8.796;2023-02-10T01:55:25;3.20;96.00
3069;DHT22;1545;51.728;8.796;2023-02-10T01:57:31;3.20;96.20
3069;DHT22;1545;51.728;8.796;2023-02-10T01:59:59;3.20;96.10
3069;DHT22;1545;51.728;8.796;2023-02-10T02:02:27;3.20;96.40
3069;DHT22;1545;51.728;8.796;2023-02-10T02:04:58;3.30;96.20
3069;DHT22;1545;51.728;8.796;2023-02-10T02:07:27;3.30;96.10
3069;DHT22;1545;51.728;8.796;2023-02-10T02:09:53;3.30;96.10
3069;DHT22;1545;51.728;8.796;2023-02-10T02:12:41;3.30;96.10
3069;DHT22;1545;51.728;8.796;2023-02-10T02:15:13;3.30;96.10
3069;DHT22;1545;51.728;8.796;2023-02-10T02:17:51;3.30;96.10
3069;DHT22;1545;51.728;8.796;2023-02-10T02:26:21;3.30;96.00
3069;DHT22;1545;51.728;8.796;2023-02-10T02:31:55;3.30;96.20
3069;DHT22;1545;51.728;8.796;2023-02-10T02:34:38;3.30;96.00
3069;DHT22;1545;51.728;8.796;2023-02-10T02:37:22;3.30;96.10
3069;DHT22;1545;51.728;8.796;2023-02-10T02:39:52;3.30;96.10
3069;DHT22;1545;51.728;8.796;2023-02-10T02:45:00;3.30;96.20
3069;DHT22;1545;51.728;8.796;2023-02-10T02:53:34;3.30;96.50
3069;DHT22;1545;51.728;8.796;2023-02-10T02:59:01;3.30;96.10
3069;DHT22;1545;51.728;8.796;2023-02-10T03:01:37;3.20;96.00
3069;DHT22;1545;51.728;8.796;2023-02-10T03:04:04;3.20;96.40
3069;DHT22;1545;51.728;8.796;2023-02-10T03:06:31;3.20;96.40
3069;DHT22;1545;51.728;8.796;2023-02-10T03:08:56;3.10;96.50
3069;DHT22;1545;51.728;8.796;2023-02-10T03:11:22;3.10;96.50
3069;DHT22;1545;51.728;8.796;2023-02-10T03:13:48;3.10;96.70
3069;DHT22;1545;51.728;8.796;2023-02-10T03:16:13;3.10;96.80
3069;DHT22;1545;51.728;8.796;2023-02-10T03:18:39;3.00;97.00
3069;DHT22;1545;51.728;8.796;2023-02-10T03:21:05;3.00;97.20
3069;DHT22;1545;51.728;8.796;2023-02-10T03:23:30;3.10;97.30
3069;DHT22;1545;51.728;8.796;2023-02-10T03:25:58;3.10;97.30
3069;DHT22;1545;51.728;8.796;2023-02-10T03:28:25;3.10;97.30
3069;DHT22;1545;51.728;8.796;2023-02-10T03:30:50;3.10;97.30
3069;DHT22;1545;51.728;8.796;2023-02-10T03:33:18;3.10;97.40
3069;DHT22;1545;51.728;8.796;2023-02-10T03:35:44;3.10;97.40
3069;DHT22;1545;51.728;8.796;2023-02-10T03:38:10;3.10;97.60
3069;DHT22;1545;51.728;8.796;2023-02-10T03:40:36;3.10;97.60
3069;DHT22;1545;51.728;8.796;2023-02-10T03:43:02;3.10;97.80
3069;DHT22;1545;51.728;8.796;2023-02-10T03:45:28;3.10;97.80
3069;DHT22;1545;51.728;8.796;2023-02-10T03:47:53;3.10;97.50
3069;DHT22;1545;51.728;8.796;2023-02-10T03:50:19;3.10;97.80
3069;DHT22;1545;51.728;8.796;2023-02-10T03:52:45;3.10;97.80
3069;DHT22;1545;51.728;8.796;2023-02-10T03:55:11;3.10;97.70
3069;DHT22;1545;51.728;8.796;2023-02-10T03:57:40;3.10;97.70
3069;DHT22;1545;51.728;8.796;2023-02-10T04:00:07;3.20;97.60
3069;DHT22;1545;51.728;8.796;2023-02-10T04:02:32;3.10;97.40
3069;DHT22;1545;51.728;8.796;2023-02-10T04:04:58;3.10;97.40
3069;DHT22;1545;51.728;8.796;2023-02-10T04:07:23;3.10;97.40
3069;DHT22;1545;51.728;8.796;2023-02-10T04:09:48;3.20;97.50
3069;DHT22;1545;51.728;8.796;2023-02-10T04:12:14;3.20;97.40
3069;DHT22;1545;51.728;8.796;2023-02-10T04:14:39;3.20;97.40
3069;DHT22;1545;51.728;8.796;2023-02-10T04:17:05;3.20;97.40
3069;DHT22;1545;51.728;8.796;2023-02-10T04:19:30;3.20;97.40
3069;DHT22;1545;51.728;8.796;2023-02-10T04:21:56;3.20;97.50
3069;DHT22;1545;51.728;8.796;2023-02-10T04:24:21;3.20;97.40
3069;DHT22;1545;51.728;8.796;2023-02-10T04:26:47;3.20;97.30
3069;DHT22;1545;51.728;8.796;2023-02-10T04:29:12;3.20;97.30
3069;DHT22;1545;51.728;8.796;2023-02-10T04:31:38;3.20;97.30
3069;DHT22;1545;51.728;8.796;2023-02-10T04:34:04;3.30;97.30
3069;DHT22;1545;51.728;8.796;2023-02-10T04:36:29;3.30;97.10
3069;DHT22;1545;51.728;8.796;2023-02-10T04:38:55;3.30;97.10
3069;DHT22;1545;51.728;8.796;2023-02-10T04:41:20;3.30;97.00
3069;DHT22;1545;51.728;8.796;2023-02-10T04:43:46;3.30;96.90
3069;DHT22;1545;51.728;8.796;2023-02-10T04:46:11;3.30;96.90
3069;DHT22;1545;51.728;8.796;2023-02-10T04:48:37;3.30;96.90
3069;DHT22;1545;51.728;8.796;2023-02-10T04:51:07;3.40;96.90
3069;DHT22;1545;51.728;8.796;2023-02-10T04:53:33;3.40;96.60
3069;DHT22;1545;51.728;8.796;2023-02-10T04:55:58;3.40;96.50
3069;DHT22;1545;51.728;8.796;2023-02-10T04:58:24;3.40;96.50
3069;DHT22;1545;51.728;8.796;2023-02-10T05:00:49;3.40;96.40
3069;DHT22;1545;51.728;8.796;2023-02-10T05:03:15;3.40;96.40
3069;DHT22;1545;51.728;8.796;2023-02-10T05:05:40;3.40;96.50
3069;DHT22;1545;51.728;8.796;2023-02-10T05:08:06;3.30;96.60
3069;DHT22;1545;51.728;8.796;2023-02-10T05:10:32;3.30;96.60
3069;DHT22;1545;51.728;8.796;2023-02-10T05:12:57;3.30;96.70
3069;DHT22;1545;51.728;8.796;2023-02-10T05:15:23;3.30;96.70
3069;DHT22;1545;51.728;8.796;2023-02-10T05:17:48;3.30;96.90
3069;DHT22;1545;51.728;8.796;2023-02-10T05:20:14;3.40;96.60
3069;DHT22;1545;51.728;8.796;2023-02-10T05:22:39;3.40;96.70
3069;DHT22;1545;51.728;8.796;2023-02-10T05:25:06;3.30;96.70
3069;DHT22;1545;51.728;8.796;2023-02-10T05:27:32;3.40;96.80
3069;DHT22;1545;51.728;8.796;2023-02-10T05:29:58;3.40;96.60
3069;DHT22;1545;51.728;8.796;2023-02-10T05:32:23;3.30;96.90
3069;DHT22;1545;51.728;8.796;2023-02-10T05:34:49;3.40;96.80
3069;DHT22;1545;51.728;8.796;2023-02-10T05:37:15;3.40;96.80
3069;DHT22;1545;51.728;8.796;2023-02-10T05:39:40;3.40;96.80
3069;DHT22;1545;51.728;8.796;2023-02-10T05:42:06;3.30;96.90
3069;DHT22;1545;51.728;8.796;2023-02-10T05:44:31;3.40;96.80
3069;DHT22;1545;51.728;8.796;2023-02-10T05:46:57;3.40;96.90
3069;DHT22;1545;51.728;8.796;2023-02-10T05:49:23;3.30;96.80
3069;DHT22;1545;51.728;8.796;2023-02-10T05:51:48;3.30;96.90
3069;DHT22;1545;51.728;8.796;2023-02-10T05:54:14;3.30;97.00
3069;DHT22;1545;51.728;8.796;2023-02-10T05:56:40;3.20;97.10
3069;DHT22;1545;51.728;8.796;2023-02-10T05:59:05;3.20;97.10
3069;DHT22;1545;51.728;8.796;2023-02-10T06:01:31;3.10;97.30
3069;DHT22;1545;51.728;8.796;2023-02-10T06:03:57;3.00;97.30
3069;DHT22;1545;51.728;8.796;2023-02-10T06:06:22;2.90;97.40
3069;DHT22;1545;51.728;8.796;2023-02-10T06:08:48;2.80;97.50
3069;DHT22;1545;51.728;8.796;2023-02-10T06:11:14;2.70;97.50
3069;DHT22;1545;51.728;8.796;2023-02-10T06:13:40;2.60;97.60
3069;DHT22;1545;51.728;8.796;2023-02-10T06:16:06;2.60;97.80
3069;DHT22;1545;51.728;8.796;2023-02-10T06:18:31;2.50;98.10
3069;DHT22;1545;51.728;8.796;2023-02-10T06:20:57;2.50;98.40
3069;DHT22;1545;51.728;8.796;2023-02-10T06:23:24;2.50;98.70
3069;DHT22;1545;51.728;8.796;2023-02-10T06:25:50;2.50;98.80
3069;DHT22;1545;51.728;8.796;2023-02-10T06:28:23;2.50;98.80
3069;DHT22;1545;51.728;8.796;2023-02-10T06:30:49;2.50;98.80
3069;DHT22;1545;51.728;8.796;2023-02-10T06:33:14;2.50;98.80
3069;DHT22;1545;51.728;8.796;2023-02-10T06:35:40;2.40;98.80
3069;DHT22;1545;51.728;8.796;2023-02-10T06:38:06;2.50;98.80
3069;DHT22;1545;51.728;8.796;2023-02-10T06:40:31;2.50;98.80
3069;DHT22;1545;51.728;8.796;2023-02-10T06:42:57;2.50;98.80
3069;DHT22;1545;51.728;8.796;2023-02-10T06:45:22;2.60;98.80
3069;DHT22;1545;51.728;8.796;2023-02-10T06:47:48;2.70;98.80
3069;DHT22;1545;51.728;8.796;2023-02-10T06:50:13;2.80;98.80
3069;DHT22;1545;51.728;8.796;2023-02-10T06:52:39;2.90;98.80
3069;DHT22;1545;51.728;8.796;2023-02-10T06:55:06;3.10;98.80
3069;DHT22;1545;51.728;8.796;2023-02-10T06:57:32;3.20;98.80
3069;DHT22;1545;51.728;8.796;2023-02-10T06:59:58;3.30;98.80
3069;DHT22;1545;51.728;8.796;2023-02-10T07:02:24;3.40;98.30
3069;DHT22;1545;51.728;8.796;2023-02-10T07:04:50;3.40;97.70
3069;DHT22;1545;51.728;8.796;2023-02-10T07:07:16;3.40;97.00
3069;DHT22;1545;51.728;8.796;2023-02-10T07:09:41;3.40;96.60
3069;DHT22;1545;51.728;8.796;2023-02-10T07:12:07;3.40;96.30
3069;DHT22;1545;51.728;8.796;2023-02-10T07:14:32;3.50;96.10
3069;DHT22;1545;51.728;8.796;2023-02-10T07:16:58;3.50;95.90
3069;DHT22;1545;51.728;8.796;2023-02-10T07:19:23;3.60;95.50
3069;DHT22;1545;51.728;8.796;2023-02-10T07:21:49;3.60;95.20
3069;DHT22;1545;51.728;8.796;2023-02-10T07:24:15;3.70;95.00
3069;DHT22;1545;51.728;8.796;2023-02-10T07:26:41;3.70;94.80
3069;DHT22;1545;51.728;8.796;2023-02-10T07:29:06;3.80;94.50
3069;DHT22;1545;51.728;8.796;2023-02-10T07:31:32;3.80;94.20
3069;DHT22;1545;51.728;8.796;2023-02-10T07:34:01;3.90;93.60
3069;DHT22;1545;51.728;8.796;2023-02-10T07:36:27;3.90;93.40
3069;DHT22;1545;51.728;8.796;2023-02-10T07:38:52;4.00;93.10
3069;DHT22;1545;51.728;8.796;2023-02-10T07:41:18;4.00;92.90
3069;DHT22;1545;51.728;8.796;2023-02-10T07:43:43;4.00;92.90
3069;DHT22;1545;51.728;8.796;2023-02-10T07:46:09;4.10;92.50
3069;DHT22;1545;51.728;8.796;2023-02-10T07:48:34;4.10;92.30
3069;DHT22;1545;51.728;8.796;2023-02-10T07:51:00;4.10;92.20
3069;DHT22;1545;51.728;8.796;2023-02-10T07:53:25;4.10;92.30
3069;DHT22;1545;51.728;8.796;2023-02-10T07:55:51;4.10;92.20
3069;DHT22;1545;51.728;8.796;2023-02-10T07:58:16;4.20;92.20
3069;DHT22;1545;51.728;8.796;2023-02-10T08:00:42;4.20;92.10
3069;DHT22;1545;51.728;8.796;2023-02-10T08:03:12;4.20;92.00
3069;DHT22;1545;51.728;8.796;2023-02-10T08:05:38;4.30;91.90
3069;DHT22;1545;51.728;8.796;2023-02-10T08:08:03;4.30;91.70
3069;DHT22;1545;51.728;8.796;2023-02-10T08:10:29;4.30;91.60
3069;DHT22;1545;51.728;8.796;2023-02-10T08:12:54;4.30;91.60
3069;DHT22;1545;51.728;8.796;2023-02-10T08:15:20;4.40;91.60
3069;DHT22;1545;51.728;8.796;2023-02-10T08:17:47;4.50;91.30
3069;DHT22;1545;51.728;8.796;2023-02-10T08:20:13;4.60;91.00
3069;DHT22;1545;51.728;8.796;2023-02-10T08:22:39;4.70;90.70
3069;DHT22;1545;51.728;8.796;2023-02-10T08:25:04;4.70;90.50
3069;DHT22;1545;51.728;8.796;2023-02-10T08:27:32;4.80;90.20
3069;DHT22;1545;51.728;8.796;2023-02-10T08:29:57;4.90;89.90
3069;DHT22;1545;51.728;8.796;2023-02-10T08:32:23;5.00;89.80
3069;DHT22;1545;51.728;8.796;2023-02-10T08:34:49;5.10;89.50
3069;DHT22;1545;51.728;8.796;2023-02-10T08:37:17;5.20;88.80
3069;DHT22;1545;51.728;8.796;2023-02-10T08:39:43;5.30;88.50
3069;DHT22;1545;51.728;8.796;2023-02-10T08:42:09;5.40;88.40
3069;DHT22;1545;51.728;8.796;2023-02-10T08:44:35;5.50;88.20
3069;DHT22;1545;51.728;8.796;2023-02-10T08:47:01;5.60;87.60
3069;DHT22;1545;51.728;8.796;2023-02-10T08:49:26;5.70;87.10
3069;DHT22;1545;51.728;8.796;2023-02-10T08:51:53;5.60;86.80
3069;DHT22;1545;51.728;8.796;2023-02-10T08:54:19;5.60;86.70
3069;DHT22;1545;51.728;8.796;2023-02-10T08:56:44;5.60;86.40
3069;DHT22;1545;51.728;8.796;2023-02-10T08:59:10;5.60;86.40
3069;DHT22;1545;51.728;8.796;2023-02-10T09:01:36;5.50;86.60
3069;DHT22;1545;51.728;8.796;2023-02-10T09:04:02;5.30;86.70
3069;DHT22;1545;51.728;8.796;2023-02-10T09:06:33;5.20;87.40
3069;DHT22;1545;51.728;8.796;2023-02-10T09:09:05;5.20;87.70
3069;DHT22;1545;51.728;8.796;2023-02-10T09:11:31;5.30;87.50
3069;DHT22;1545;51.728;8.796;2023-02-10T09:13:56;5.30;87.40
3069;DHT22;1545;51.728;8.796;2023-02-10T09:16:23;5.30;87.40
3069;DHT22;1545;51.728;8.796;2023-02-10T09:18:49;5.40;87.30
3069;DHT22;1545;51.728;8.796;2023-02-10T09:21:15;5.50;87.20
3069;DHT22;1545;51.728;8.796;2023-02-10T09:23:41;5.60;86.80
3069;DHT22;1545;51.728;8.796;2023-02-10T09:26:07;5.70;86.40
3069;DHT22;1545;51.728;8.796;2023-02-10T09:28:32;5.80;86.30
3069;DHT22;1545;51.728;8.796;2023-02-10T09:30:58;5.90;85.60
3069;DHT22;1545;51.728;8.796;2023-02-10T09:33:23;6.00;85.50
3069;DHT22;1545;51.728;8.796;2023-02-10T09:35:49;6.10;85.10
3069;DHT22;1545;51.728;8.796;2023-02-10T09:38:14;6.10;85.00
3069;DHT22;1545;51.728;8.796;2023-02-10T09:43:26;6.10;84.90
3069;DHT22;1545;51.728;8.796;2023-02-10T09:46:05;6.10;84.70
3069;DHT22;1545;51.728;8.796;2023-02-10T09:48:53;6.20;84.60
3069;DHT22;1545;51.728;8.796;2023-02-10T09:51:43;6.30;84.70
3069;DHT22;1545;51.728;8.796;2023-02-10T09:54:15;6.50;83.80
3069;DHT22;1545;51.728;8.796;2023-02-10T09:56:41;6.50;83.30
3069;DHT22;1545;51.728;8.796;2023-02-10T09:59:12;6.50;83.10
3069;DHT22;1545;51.728;8.796;2023-02-10T10:01:43;6.50;83.00
3069;DHT22;1545;51.728;8.796;2023-02-10T10:04:15;6.60;83.20
3069;DHT22;1545;51.728;8.796;2023-02-10T10:06:44;6.60;82.90
3069;DHT22;1545;51.728;8.796;2023-02-10T10:11:46;6.70;82.60
3069;DHT22;1545;51.728;8.796;2023-02-10T10:14:21;6.70;82.60
3069;DHT22;1545;51.728;8.796;2023-02-10T10:20:05;6.70;82.20
3069;DHT22;1545;51.728;8.796;2023-02-10T10:31:14;7.00;80.70
3069;DHT22;1545;51.728;8.796;2023-02-10T10:33:52;6.90;80.90
3069;DHT22;1545;51.728;8.796;2023-02-10T10:36:20;7.00;81.10
3069;DHT22;1545;51.728;8.796;2023-02-10T10:38:52;7.20;80.60
3069;DHT22;1545;51.728;8.796;2023-02-10T10:41:20;7.30;79.90
3069;DHT22;1545;51.728;8.796;2023-02-10T10:43:49;7.10;79.80
3069;DHT22;1545;51.728;8.796;2023-02-10T10:49:03;7.10;80.30
3069;DHT22;1545;51.728;8.796;2023-02-10T10:51:30;7.10;80.00
3069;DHT22;1545;51.728;8.796;2023-02-10T10:53:57;6.90;79.80
3069;DHT22;1545;51.728;8.796;2023-02-10T10:59:25;6.90;80.40
3069;DHT22;1545;51.728;8.796;2023-02-10T11:01:52;6.80;80.30
3069;DHT22;1545;51.728;8.796;2023-02-10T11:04:23;6.70;80.50
3069;DHT22;1545;51.728;8.796;2023-02-10T11:06:52;6.70;80.60
3069;DHT22;1545;51.728;8.796;2023-02-10T11:09:34;6.60;80.70
3069;DHT22;1545;51.728;8.796;2023-02-10T11:12:21;6.50;80.60
3069;DHT22;1545;51.728;8.796;2023-02-10T11:14:50;6.30;81.10
3069;DHT22;1545;51.728;8.796;2023-02-10T11:17:36;6.10;81.50
3069;DHT22;1545;51.728;8.796;2023-02-10T11:22:39;6.00;82.60
3069;DHT22;1545;51.728;8.796;2023-02-10T11:25:28;5.90;82.40
3069;DHT22;1545;51.728;8.796;2023-02-10T11:27:55;5.90;82.60
3069;DHT22;1545;51.728;8.796;2023-02-10T11:30:39;5.80;82.90
3069;DHT22;1545;51.728;8.796;2023-02-10T11:33:15;5.80;82.80
3069;DHT22;1545;51.728;8.796;2023-02-10T11:35:56;5.80;83.10
3069;DHT22;1545;51.728;8.796;2023-02-10T11:38:24;5.80;83.10
3069;DHT22;1545;51.728;8.796;2023-02-10T11:40:56;5.80;83.30
3069;DHT22;1545;51.728;8.796;2023-02-10T11:43:29;5.80;83.10
3069;DHT22;1545;51.728;8.796;2023-02-10T11:45:58;5.80;83.20
3069;DHT22;1545;51.728;8.796;2023-02-10T11:48:25;5.80;83.10
3069;DHT22;1545;51.728;8.796;2023-02-10T11:51:13;5.80;83.30
3069;DHT22;1545;51.728;8.796;2023-02-10T11:53:40;5.80;83.40
3069;DHT22;1545;51.728;8.796;2023-02-10T12:05:06;6.10;82.60
3069;DHT22;1545;51.728;8.796;2023-02-10T12:07:57;6.10;82.70
3069;DHT22;1545;51.728;8.796;2023-02-10T12:10:33;6.30;81.90
3069;DHT22;1545;51.728;8.796;2023-02-10T12:19:08;6.30;81.10
3069;DHT22;1545;51.728;8.796;2023-02-10T12:22:02;6.20;80.80
3069;DHT22;1545;51.728;8.796;2023-02-10T12:46:05;7.10;78.30
3069;DHT22;1545;51.728;8.796;2023-02-10T12:48:41;7.10;78.00
3069;DHT22;1545;51.728;8.796;2023-02-10T12:51:33;7.10;77.80
3069;DHT22;1545;51.728;8.796;2023-02-10T12:54:11;7.10;77.60
3069;DHT22;1545;51.728;8.796;2023-02-10T12:57:05;7.10;77.70
3069;DHT22;1545;51.728;8.796;2023-02-10T12:59:56;7.10;77.50
3069;DHT22;1545;51.728;8.796;2023-02-10T13:05:06;7.10;78.00
3069;DHT22;1545;51.728;8.796;2023-02-10T13:07:53;7.10;78.00
3069;DHT22;1545;51.728;8.796;2023-02-10T13:10:45;7.10;78.00
3069;DHT22;1545;51.728;8.796;2023-02-10T13:13:15;7.00;78.10
3069;DHT22;1545;51.728;8.796;2023-02-10T13:15:49;6.90;78.40
3069;DHT22;1545;51.728;8.796;2023-02-10T13:18:21;7.00;78.60
3069;DHT22;1545;51.728;8.796;2023-02-10T13:23:36;7.10;78.20
3069;DHT22;1545;51.728;8.796;2023-02-10T13:26:23;7.10;77.70
3069;DHT22;1545;51.728;8.796;2023-02-10T13:29:19;7.10;77.90
3069;DHT22;1545;51.728;8.796;2023-02-10T13:34:30;7.10;77.70
3069;DHT22;1545;51.728;8.796;2023-02-10T13:40:14;7.00;78.30
3069;DHT22;1545;51.728;8.796;2023-02-10T13:42:47;7.00;78.30
3069;DHT22;1545;51.728;8.796;2023-02-10T13:50:20;6.90;78.40
3069;DHT22;1545;51.728;8.796;2023-02-10T13:53:02;6.80;78.50
3069;DHT22;1545;51.728;8.796;2023-02-10T14:00:50;6.60;78.90
3069;DHT22;1545;51.728;8.796;2023-02-10T14:06:01;6.70;78.90
3069;DHT22;1545;51.728;8.796;2023-02-10T14:08:39;6.70;78.40
3069;DHT22;1545;51.728;8.796;2023-02-10T14:13:42;6.70;78.70
3069;DHT22;1545;51.728;8.796;2023-02-10T14:16:29;6.80;78.60
3069;DHT22;1545;51.728;8.796;2023-02-10T14:19:00;6.90;78.80
3069;DHT22;1545;51.728;8.796;2023-02-10T14:21:38;6.90;78.80
3069;DHT22;1545;51.728;8.796;2023-02-10T14:24:09;6.90;78.50
3069;DHT22;1545;51.728;8.796;2023-02-10T14:26:42;6.90;78.50
3069;DHT22;1545;51.728;8.796;2023-02-10T14:29:12;7.00;78.60
3069;DHT22;1545;51.728;8.796;2023-02-10T14:31:39;7.00;78.80
3069;DHT22;1545;51.728;8.796;2023-02-10T14:36:53;6.80;78.60
3069;DHT22;1545;51.728;8.796;2023-02-10T14:39:21;6.70;79.30
3069;DHT22;1545;51.728;8.796;2023-02-10T14:41:47;6.70;79.40
3069;DHT22;1545;51.728;8.796;2023-02-10T14:44:33;6.70;79.40
3069;DHT22;1545;51.728;8.796;2023-02-10T14:46:59;6.60;79.00
3069;DHT22;1545;51.728;8.796;2023-02-10T14:49:25;6.50;79.30
3069;DHT22;1545;51.728;8.796;2023-02-10T14:51:51;6.50;79.50
3069;DHT22;1545;51.728;8.796;2023-02-10T14:54:18;6.60;79.80
3069;DHT22;1545;51.728;8.796;2023-02-10T14:59:24;6.50;79.90
3069;DHT22;1545;51.728;8.796;2023-02-10T15:01:53;6.50;79.50
3069;DHT22;1545;51.728;8.796;2023-02-10T15:04:19;6.40;79.50
3069;DHT22;1545;51.728;8.796;2023-02-10T15:06:48;6.30;79.70
3069;DHT22;1545;51.728;8.796;2023-02-10T15:09:20;6.30;79.90
3069;DHT22;1545;51.728;8.796;2023-02-10T15:11:54;6.20;80.10
3069;DHT22;1545;51.728;8.796;2023-02-10T15:14:49;6.10;80.60
3069;DHT22;1545;51.728;8.796;2023-02-10T15:17:19;6.10;80.80
3069;DHT22;1545;51.728;8.796;2023-02-10T15:22:44;6.00;80.90
3069;DHT22;1545;51.728;8.796;2023-02-10T15:27:51;5.70;80.80
3069;DHT22;1545;51.728;8.796;2023-02-10T15:30:19;5.70;81.10
3069;DHT22;1545;51.728;8.796;2023-02-10T15:32:50;5.60;81.20
3069;DHT22;1545;51.728;8.796;2023-02-10T15:35:16;5.60;81.30
3069;DHT22;1545;51.728;8.796;2023-02-10T15:37:42;5.60;81.50
3069;DHT22;1545;51.728;8.796;2023-02-10T15:40:17;5.50;81.60
3069;DHT22;1545;51.728;8.796;2023-02-10T15:42:43;5.50;81.50
3069;DHT22;1545;51.728;8.796;2023-02-10T15:45:14;5.50;81.60
3069;DHT22;1545;51.728;8.796;2023-02-10T15:47:46;5.50;81.70
3069;DHT22;1545;51.728;8.796;2023-02-10T15:50:13;5.40;81.70
3069;DHT22;1545;51.728;8.796;2023-02-10T15:52:41;5.40;81.80
3069;DHT22;1545;51.728;8.796;2023-02-10T15:55:25;5.40;81.90
3069;DHT22;1545;51.728;8.796;2023-02-10T15:57:54;5.30;82.10
3069;DHT22;1545;51.728;8.796;2023-02-10T16:00:25;5.30;82.20
3069;DHT22;1545;51.728;8.796;2023-02-10T16:02:51;5.20;82.20
3069;DHT22;1545;51.728;8.796;2023-02-10T16:05:17;5.20;82.20
3069;DHT22;1545;51.728;8.796;2023-02-10T16:07:43;5.20;82.20
3069;DHT22;1545;51.728;8.796;2023-02-10T16:10:20;5.10;82.30
3069;DHT22;1545;51.728;8.796;2023-02-10T16:12:47;5.00;82.40
3069;DHT22;1545;51.728;8.796;2023-02-10T16:15:14;4.90;82.50
3069;DHT22;1545;51.728;8.796;2023-02-10T16:17:43;4.90;82.70
3069;DHT22;1545;51.728;8.796;2023-02-10T16:20:26;4.80;82.70
3069;DHT22;1545;51.728;8.796;2023-02-10T16:22:56;4.70;83.00
3069;DHT22;1545;51.728;8.796;2023-02-10T16:25:24;4.70;83.00
3069;DHT22;1545;51.728;8.796;2023-02-10T16:27:50;4.60;83.10
3069;DHT22;1545;51.728;8.796;2023-02-10T16:30:25;4.60;83.20
3069;DHT22;1545;51.728;8.796;2023-02-10T16:32:52;4.50;83.30
3069;DHT22;1545;51.728;8.796;2023-02-10T16:35:18;4.30;83.80
3069;DHT22;1545;51.728;8.796;2023-02-10T16:37:44;4.20;84.00
3069;DHT22;1545;51.728;8.796;2023-02-10T16:40:23;4.00;84.20
3069;DHT22;1545;51.728;8.796;2023-02-10T16:42:49;3.90;84.50
3069;DHT22;1545;51.728;8.796;2023-02-10T16:45:15;3.70;84.80
3069;DHT22;1545;51.728;8.796;2023-02-10T16:47:40;3.50;85.50
3069;DHT22;1545;51.728;8.796;2023-02-10T16:50:06;3.30;86.00
3069;DHT22;1545;51.728;8.796;2023-02-10T16:52:32;3.30;86.40
3069;DHT22;1545;51.728;8.796;2023-02-10T16:55:02;3.10;86.70
3069;DHT22;1545;51.728;8.796;2023-02-10T16:57:28;3.00;87.00
3069;DHT22;1545;51.728;8.796;2023-02-10T16:59:54;2.90;87.60
3069;DHT22;1545;51.728;8.796;2023-02-10T17:02:20;2.80;88.00
3069;DHT22;1545;51.728;8.796;2023-02-10T17:04:46;2.70;88.50
3069;DHT22;1545;51.728;8.796;2023-02-10T17:07:11;2.70;88.90
3069;DHT22;1545;51.728;8.796;2023-02-10T17:09:38;2.70;89.00
3069;DHT22;1545;51.728;8.796;2023-02-10T17:12:03;2.70;89.10
3069;DHT22;1545;51.728;8.796;2023-02-10T17:14:29;2.60;89.20
3069;DHT22;1545;51.728;8.796;2023-02-10T17:16:54;2.70;89.30
3069;DHT22;1545;51.728;8.796;2023-02-10T17:19:21;2.70;89.10
3069;DHT22;1545;51.728;8.796;2023-02-10T17:21:49;2.70;89.10
3069;DHT22;1545;51.728;8.796;2023-02-10T17:24:14;2.60;89.20
3069;DHT22;1545;51.728;8.796;2023-02-10T17:26:40;2.60;89.40
3069;DHT22;1545;51.728;8.796;2023-02-10T17:29:11;2.60;89.60
3069;DHT22;1545;51.728;8.796;2023-02-10T17:31:38;2.60;89.80
3069;DHT22;1545;51.728;8.796;2023-02-10T17:34:03;2.60;90.00
3069;DHT22;1545;51.728;8.796;2023-02-10T17:36:29;2.60;90.00
3069;DHT22;1545;51.728;8.796;2023-02-10T17:38:57;2.60;90.10
3069;DHT22;1545;51.728;8.796;2023-02-10T17:41:27;2.70;90.30
3069;DHT22;1545;51.728;8.796;2023-02-10T17:43:56;2.70;90.70
3069;DHT22;1545;51.728;8.796;2023-02-10T17:46:23;2.70;90.80
3069;DHT22;1545;51.728;8.796;2023-02-10T17:48:49;2.70;90.90
3069;DHT22;1545;51.728;8.796;2023-02-10T17:51:17;2.70;91.10
3069;DHT22;1545;51.728;8.796;2023-02-10T17:53:44;2.70;91.30
3069;DHT22;1545;51.728;8.796;2023-02-10T17:56:09;2.70;91.40
3069;DHT22;1545;51.728;8.796;2023-02-10T17:58:35;2.70;91.30
3069;DHT22;1545;51.728;8.796;2023-02-10T18:01:01;2.70;91.50
3069;DHT22;1545;51.728;8.796;2023-02-10T18:03:26;2.70;91.60
3069;DHT22;1545;51.728;8.796;2023-02-10T18:05:53;2.70;91.80
3069;DHT22;1545;51.728;8.796;2023-02-10T18:08:20;2.70;91.80
3069;DHT22;1545;51.728;8.796;2023-02-10T18:10:48;2.80;91.90
3069;DHT22;1545;51.728;8.796;2023-02-10T18:13:14;2.80;91.70
3069;DHT22;1545;51.728;8.796;2023-02-10T18:15:40;2.90;91.70
3069;DHT22;1545;51.728;8.796;2023-02-10T18:18:05;2.90;91.70
3069;DHT22;1545;51.728;8.796;2023-02-10T18:20:31;2.90;91.50
3069;DHT22;1545;51.728;8.796;2023-02-10T18:22:56;3.00;91.60
3069;DHT22;1545;51.728;8.796;2023-02-10T18:25:22;3.00;91.50
3069;DHT22;1545;51.728;8.796;2023-02-10T18:27:47;3.00;91.50
3069;DHT22;1545;51.728;8.796;2023-02-10T18:30:14;3.00;91.50